sensor_id;sensor_type;location;lat;lon;timestamp;pressure;altitude;pressure_sealevel;temperature;humidity
57990;BME280;58373;51.824;5.564;2023-08-07T00:01:00;101201.13;;;12.53;100.00
57990;BME280;58373;51.824;5.564;2023-08-07T00:03:26;101199.81;;;12.59;100.00
57990;BME280;58373;51.824;5.564;2023-08-07T00:05:51;101199.22;;;12.55;100.00
57990;BME280;58373;51.824;5.564;2023-08-07T00:08:17;101201.56;;;12.79;100.00
57990;BME280;58373;51.824;5.564;2023-08-07T00:10:42;101198.28;;;12.56;100.00
57990;BME280;58373;51.824;5.564;2023-08-07T00:13:07;101198.41;;;12.55;100.00
57990;BME280;58373;51.824;5.564;2023-08-07T00:15:32;101194.28;;;12.52;100.00
57990;BME280;58373;51.824;5.564;2023-08-07T00:17:58;101194.28;;;12.52;100.00
57990;BME280;58373;51.824;5.564;2023-08-07T00:20:23;101195.25;;;12.82;100.00
57990;BME280;58373;51.824;5.564;2023-08-07T00:22:49;101197.50;;;12.65;100.00
57990;BME280;58373;51.824;5.564;2023-08-07T00:25:14;101200.91;;;12.56;100.00
57990;BME280;58373;51.824;5.564;2023-08-07T00:27:39;101196.03;;;12.72;100.00
57990;BME280;58373;51.824;5.564;2023-08-07T00:30:04;101195.41;;;12.59;100.00
57990;BME280;58373;51.824;5.564;2023-08-07T00:32:30;101194.47;;;12.60;100.00
57990;BME280;58373;51.824;5.564;2023-08-07T00:34:55;101200.09;;;12.65;100.00
57990;BME280;58373;51.824;5.564;2023-08-07T00:37:20;101196.38;;;12.58;100.00
57990;BME280;58373;51.824;5.564;2023-08-07T00:39:45;101205.81;;;12.59;100.00
57990;BME280;58373;51.824;5.564;2023-08-07T00:42:10;101201.06;;;12.64;100.00
57990;BME280;58373;51.824;5.564;2023-08-07T00:44:36;101202.97;;;12.62;100.00
57990;BME280;58373;51.824;5.564;2023-08-07T00:47:01;101204.63;;;12.63;100.00
57990;BME280;58373;51.824;5.564;2023-08-07T00:49:26;101189.97;;;12.62;100.00
57990;BME280;58373;51.824;5.564;2023-08-07T00:51:52;101195.50;;;12.79;100.00
57990;BME280;58373;51.824;5.564;2023-08-07T00:54:18;101200.09;;;12.65;100.00
57990;BME280;58373;51.824;5.564;2023-08-07T00:56:44;101195.72;;;12.66;100.00
57990;BME280;58373;51.824;5.564;2023-08-07T00:59:10;101204.25;;;12.68;100.00
57990;BME280;58373;51.824;5.564;2023-08-07T01:01:35;101199.72;;;12.70;100.00
57990;BME280;58373;51.824;5.564;2023-08-07T01:04:01;101205.13;;;12.88;100.00
57990;BME280;58373;51.824;5.564;2023-08-07T01:06:26;101203.16;;;12.70;100.00
57990;BME280;58373;51.824;5.564;2023-08-07T01:08:51;101214.94;;;12.74;100.00
57990;BME280;58373;51.824;5.564;2023-08-07T01:14:02;101213.81;;;12.67;100.00
57990;BME280;58373;51.824;5.564;2023-08-07T01:19:14;101217.38;;;12.66;100.00
57990;BME280;58373;51.824;5.564;2023-08-07T01:21:45;101225.59;;;12.71;100.00
57990;BME280;58373;51.824;5.564;2023-08-07T01:24:10;101218.31;;;12.65;100.00
57990;BME280;58373;51.824;5.564;2023-08-07T01:26:35;101232.97;;;12.66;100.00
57990;BME280;58373;51.824;5.564;2023-08-07T01:29:06;101233.25;;;12.63;100.00
57990;BME280;58373;51.824;5.564;2023-08-07T01:31:34;101223.97;;;12.70;100.00
57990;BME280;58373;51.824;5.564;2023-08-07T01:34:03;101227.66;;;12.68;100.00
57990;BME280;58373;51.824;5.564;2023-08-07T01:36:29;101221.63;;;12.67;100.00
57990;BME280;58373;51.824;5.564;2023-08-07T01:38:56;101243.66;;;12.63;100.00
57990;BME280;58373;51.824;5.564;2023-08-07T01:41:22;101232.03;;;12.67;100.00
57990;BME280;58373;51.824;5.564;2023-08-07T01:43:47;101231.19;;;12.67;100.00
57990;BME280;58373;51.824;5.564;2023-08-07T01:46:12;101227.78;;;12.66;100.00
57990;BME280;58373;51.824;5.564;2023-08-07T01:48:37;101221.19;;;12.62;100.00
57990;BME280;58373;51.824;5.564;2023-08-07T01:51:02;101235.13;;;12.61;100.00
57990;BME280;58373;51.824;5.564;2023-08-07T01:53:28;101232.97;;;12.66;100.00
57990;BME280;58373;51.824;5.564;2023-08-07T01:55:53;101241.75;;;12.65;100.00
57990;BME280;58373;51.824;5.564;2023-08-07T01:58:18;101227.91;;;12.65;100.00
57990;BME280;58373;51.824;5.564;2023-08-07T02:00:43;101244.84;;;12.59;100.00
57990;BME280;58373;51.824;5.564;2023-08-07T02:03:08;101240.34;;;12.61;100.00
57990;BME280;58373;51.824;5.564;2023-08-07T02:05:34;101238.44;;;12.63;100.00
57990;BME280;58373;51.824;5.564;2023-08-07T02:07:59;101236.09;;;12.60;100.00
57990;BME280;58373;51.824;5.564;2023-08-07T02:10:24;101241.22;;;12.71;100.00
57990;BME280;58373;51.824;5.564;2023-08-07T02:12:50;101244.09;;;12.68;100.00
57990;BME280;58373;51.824;5.564;2023-08-07T02:15:15;101250.25;;;12.67;100.00
57990;BME280;58373;51.824;5.564;2023-08-07T02:17:40;101249.09;;;12.60;100.00
57990;BME280;58373;51.824;5.564;2023-08-07T02:20:06;101252.41;;;12.62;100.00
57990;BME280;58373;51.824;5.564;2023-08-07T02:22:31;101246.06;;;12.55;100.00
57990;BME280;58373;51.824;5.564;2023-08-07T02:24:56;101258.63;;;12.50;100.00
57990;BME280;58373;51.824;5.564;2023-08-07T02:27:22;101248.28;;;12.60;100.00
57990;BME280;58373;51.824;5.564;2023-08-07T02:29:47;101263.81;;;12.50;100.00
57990;BME280;58373;51.824;5.564;2023-08-07T02:32:12;101255.34;;;12.48;100.00
57990;BME280;58373;51.824;5.564;2023-08-07T02:34:37;101253.41;;;12.50;100.00
57990;BME280;58373;51.824;5.564;2023-08-07T02:37:02;101254.50;;;12.47;100.00
57990;BME280;58373;51.824;5.564;2023-08-07T02:39:28;101256.16;;;12.48;100.00
57990;BME280;58373;51.824;5.564;2023-08-07T02:41:53;101262.19;;;12.49;100.00
57990;BME280;58373;51.824;5.564;2023-08-07T02:44:18;101257.41;;;12.54;100.00
57990;BME280;58373;51.824;5.564;2023-08-07T02:46:45;101254.28;;;12.51;100.00
57990;BME280;58373;51.824;5.564;2023-08-07T02:49:10;101249.88;;;12.51;100.00
57990;BME280;58373;51.824;5.564;2023-08-07T02:51:35;101251.03;;;12.58;100.00
57990;BME280;58373;51.824;5.564;2023-08-07T02:54:00;101250.44;;;12.55;100.00
57990;BME280;58373;51.824;5.564;2023-08-07T02:56:25;101260.03;;;12.54;100.00
57990;BME280;58373;51.824;5.564;2023-08-07T02:58:51;101246.50;;;12.60;100.00
57990;BME280;58373;51.824;5.564;2023-08-07T03:01:16;101256.72;;;12.52;100.00
57990;BME280;58373;51.824;5.564;2023-08-07T03:03:41;101254.81;;;12.54;100.00
57990;BME280;58373;51.824;5.564;2023-08-07T03:06:06;101251.53;;;12.52;100.00
57990;BME280;58373;51.824;5.564;2023-08-07T03:08:32;101251.25;;;12.55;100.00
57990;BME280;58373;51.824;5.564;2023-08-07T03:10:57;101246.31;;;12.52;100.00
57990;BME280;58373;51.824;5.564;2023-08-07T03:13:23;101241.69;;;12.56;100.00
57990;BME280;58373;51.824;5.564;2023-08-07T03:15:48;101246.06;;;12.55;100.00
57990;BME280;58373;51.824;5.564;2023-08-07T03:18:15;101249.38;;;12.57;100.00
57990;BME280;58373;51.824;5.564;2023-08-07T03:20:41;101247.47;;;12.59;100.00
57990;BME280;58373;51.824;5.564;2023-08-07T03:23:06;101246.94;;;12.65;100.00
57990;BME280;58373;51.824;5.564;2023-08-07T03:25:31;101243.16;;;12.69;100.00
57990;BME280;58373;51.824;5.564;2023-08-07T03:27:57;101240.09;;;12.64;100.00
57990;BME280;58373;51.824;5.564;2023-08-07T03:30:22;101245.00;;;12.58;100.00
57990;BME280;58373;51.824;5.564;2023-08-07T03:32:47;101245.81;;;12.58;100.00
57990;BME280;58373;51.824;5.564;2023-08-07T03:35:13;101244.22;;;12.67;100.00
57990;BME280;58373;51.824;5.564;2023-08-07T03:37:38;101250.06;;;12.80;100.00
57990;BME280;58373;51.824;5.564;2023-08-07T03:40:03;101241.75;;;12.65;100.00
57990;BME280;58373;51.824;5.564;2023-08-07T03:42:29;101245.31;;;12.64;100.00
57990;BME280;58373;51.824;5.564;2023-08-07T03:44:54;101242.25;;;12.59;100.00
57990;BME280;58373;51.824;5.564;2023-08-07T03:47:19;101244.84;;;12.59;100.00
57990;BME280;58373;51.824;5.564;2023-08-07T03:49:44;101244.41;;;12.54;100.00
57990;BME280;58373;51.824;5.564;2023-08-07T03:52:09;101254.81;;;12.54;100.00
57990;BME280;58373;51.824;5.564;2023-08-07T03:54:35;101256.47;;;12.55;100.00
57990;BME280;58373;51.824;5.564;2023-08-07T03:57:00;101262.19;;;12.49;100.00
57990;BME280;58373;51.824;5.564;2023-08-07T03:59:25;101255.09;;;12.51;100.00
57990;BME280;58373;51.824;5.564;2023-08-07T04:01:50;101248.72;;;12.44;100.00
57990;BME280;58373;51.824;5.564;2023-08-07T04:04:15;101245.69;;;12.39;100.00
57990;BME280;58373;51.824;5.564;2023-08-07T04:06:41;101243.19;;;12.37;100.00
57990;BME280;58373;51.824;5.564;2023-08-07T04:09:06;101247.59;;;12.37;100.00
57990;BME280;58373;51.824;5.564;2023-08-07T04:11:31;101238.81;;;12.38;100.00
57990;BME280;58373;51.824;5.564;2023-08-07T04:13:58;101253.00;;;12.45;100.00
57990;BME280;58373;51.824;5.564;2023-08-07T04:16:23;101253.59;;;12.37;100.00
57990;BME280;58373;51.824;5.564;2023-08-07T04:18:49;101248.69;;;12.34;100.00
57990;BME280;58373;51.824;5.564;2023-08-07T04:21:14;101256.78;;;12.41;100.00
57990;BME280;58373;51.824;5.564;2023-08-07T04:23:39;101253.28;;;12.31;100.00
57990;BME280;58373;51.824;5.564;2023-08-07T04:26:04;101255.91;;;12.31;100.00
57990;BME280;58373;51.824;5.564;2023-08-07T04:28:29;101253.56;;;12.28;100.00
57990;BME280;58373;51.824;5.564;2023-08-07T04:30:55;101248.34;;;12.28;100.00
57990;BME280;58373;51.824;5.564;2023-08-07T04:33:20;101247.25;;;12.30;100.00
57990;BME280;58373;51.824;5.564;2023-08-07T04:35:45;101255.22;;;12.29;100.00
57990;BME280;58373;51.824;5.564;2023-08-07T04:38:14;101260.41;;;12.29;100.00
57990;BME280;58373;51.824;5.564;2023-08-07T04:40:43;101262.75;;;12.32;100.00
57990;BME280;58373;51.824;5.564;2023-08-07T04:43:08;101275.50;;;12.35;100.00
57990;BME280;58373;51.824;5.564;2023-08-07T04:45:34;101268.91;;;12.31;100.00
57990;BME280;58373;51.824;5.564;2023-08-07T04:47:59;101269.03;;;12.29;100.00
57990;BME280;58373;51.824;5.564;2023-08-07T04:50:25;101265.59;;;12.29;100.00
57990;BME280;58373;51.824;5.564;2023-08-07T04:52:50;101266.97;;;12.33;100.00
57990;BME280;58373;51.824;5.564;2023-08-07T04:55:15;101272.19;;;12.33;100.00
57990;BME280;58373;51.824;5.564;2023-08-07T04:57:40;101271.00;;;12.37;100.00
57990;BME280;58373;51.824;5.564;2023-08-07T05:00:06;101271.72;;;12.39;100.00
57990;BME280;58373;51.824;5.564;2023-08-07T05:02:31;101275.25;;;12.38;100.00
57990;BME280;58373;51.824;5.564;2023-08-07T05:04:56;101277.03;;;12.37;100.00
57990;BME280;58373;51.824;5.564;2023-08-07T05:07:21;101275.25;;;12.38;100.00
57990;BME280;58373;51.824;5.564;2023-08-07T05:09:46;101282.13;;;12.39;100.00
57990;BME280;58373;51.824;5.564;2023-08-07T05:12:12;101278.56;;;12.40;100.00
57990;BME280;58373;51.824;5.564;2023-08-07T05:14:37;101283.03;;;12.38;100.00
57990;BME280;58373;51.824;5.564;2023-08-07T05:17:02;101284.00;;;12.37;100.00
57990;BME280;58373;51.824;5.564;2023-08-07T05:19:27;101287.31;;;12.39;100.00
57990;BME280;58373;51.824;5.564;2023-08-07T05:21:52;101285.41;;;12.41;100.00
57990;BME280;58373;51.824;5.564;2023-08-07T05:24:18;101294.16;;;12.40;100.00
57990;BME280;58373;51.824;5.564;2023-08-07T05:26:43;101292.25;;;12.42;100.00
57990;BME280;58373;51.824;5.564;2023-08-07T05:29:08;101293.91;;;12.43;100.00
57990;BME280;58373;51.824;5.564;2023-08-07T05:31:34;101291.31;;;12.43;100.00
57990;BME280;58373;51.824;5.564;2023-08-07T05:33:59;101306.81;;;12.44;100.00
57990;BME280;58373;51.824;5.564;2023-08-07T05:36:24;101295.53;;;12.44;100.00
57990;BME280;58373;51.824;5.564;2023-08-07T05:38:49;101306.84;;;12.54;100.00
57990;BME280;58373;51.824;5.564;2023-08-07T05:41:14;101295.75;;;12.52;100.00
57990;BME280;58373;51.824;5.564;2023-08-07T05:43:40;101301.91;;;12.51;100.00
57990;BME280;58373;51.824;5.564;2023-08-07T05:46:05;101303.31;;;12.55;100.00
57990;BME280;58373;51.824;5.564;2023-08-07T05:48:30;101313.72;;;12.55;100.00
57990;BME280;58373;51.824;5.564;2023-08-07T05:50:55;101310.41;;;12.53;100.00
57990;BME280;58373;51.824;5.564;2023-08-07T05:53:22;101326.63;;;12.57;100.00
57990;BME280;58373;51.824;5.564;2023-08-07T05:55:47;101324.56;;;12.60;100.00
57990;BME280;58373;51.824;5.564;2023-08-07T05:58:12;101324.69;;;12.59;100.00
57990;BME280;58373;51.824;5.564;2023-08-07T06:00:37;101326.94;;;12.63;100.00
57990;BME280;58373;51.824;5.564;2023-08-07T06:03:02;101326.34;;;12.60;100.00
57990;BME280;58373;51.824;5.564;2023-08-07T06:05:28;101328.56;;;12.64;100.00
57990;BME280;58373;51.824;5.564;2023-08-07T06:07:53;101324.19;;;12.65;100.00
57990;BME280;58373;51.824;5.564;2023-08-07T06:10:18;101329.97;;;12.68;100.00
57990;BME280;58373;51.824;5.564;2023-08-07T06:12:43;101327.47;;;12.67;100.00
57990;BME280;58373;51.824;5.564;2023-08-07T06:15:09;101337.91;;;12.67;100.00
57990;BME280;58373;51.824;5.564;2023-08-07T06:17:34;101339.56;;;12.68;100.00
57990;BME280;58373;51.824;5.564;2023-08-07T06:19:59;101336.56;;;12.72;100.00
57990;BME280;58373;51.824;5.564;2023-08-07T06:22:24;101340.13;;;12.71;100.00
57990;BME280;58373;51.824;5.564;2023-08-07T06:24:50;101349.22;;;12.77;100.00
57990;BME280;58373;51.824;5.564;2023-08-07T06:27:15;101350.03;;;12.77;100.00
57990;BME280;58373;51.824;5.564;2023-08-07T06:29:40;101341.03;;;12.82;100.00
57990;BME280;58373;51.824;5.564;2023-08-07T06:32:05;101353.66;;;12.86;100.00
57990;BME280;58373;51.824;5.564;2023-08-07T06:34:31;101355.00;;;12.81;100.00
57990;BME280;58373;51.824;5.564;2023-08-07T06:36:56;101355.00;;;12.81;100.00
57990;BME280;58373;51.824;5.564;2023-08-07T06:39:21;101365.13;;;12.84;100.00
57990;BME280;58373;51.824;5.564;2023-08-07T06:41:46;101371.06;;;12.86;100.00
57990;BME280;58373;51.824;5.564;2023-08-07T06:44:11;101373.91;;;12.83;100.00
57990;BME280;58373;51.824;5.564;2023-08-07T06:46:37;101366.22;;;12.81;100.00
57990;BME280;58373;51.824;5.564;2023-08-07T06:49:02;101369.41;;;12.85;100.00
57990;BME280;58373;51.824;5.564;2023-08-07T06:51:27;101383.31;;;12.95;100.00
57990;BME280;58373;51.824;5.564;2023-08-07T06:53:52;101385.59;;;12.88;100.00
57990;BME280;58373;51.824;5.564;2023-08-07T06:56:17;101392.34;;;12.91;100.00
57990;BME280;58373;51.824;5.564;2023-08-07T06:58:43;101387.56;;;12.96;100.00
57990;BME280;58373;51.824;5.564;2023-08-07T07:01:08;101395.13;;;12.99;100.00
57990;BME280;58373;51.824;5.564;2023-08-07T07:03:33;101375.19;;;13.09;100.00
57990;BME280;58373;51.824;5.564;2023-08-07T07:05:58;101382.22;;;13.18;100.00
57990;BME280;58373;51.824;5.564;2023-08-07T07:08:24;101391.22;;;13.25;100.00
57990;BME280;58373;51.824;5.564;2023-08-07T07:10:49;101396.44;;;13.25;100.00
57990;BME280;58373;51.824;5.564;2023-08-07T07:13:14;101402.50;;;13.36;100.00
57990;BME280;58373;51.824;5.564;2023-08-07T07:15:39;101410.38;;;13.24;100.00
57990;BME280;58373;51.824;5.564;2023-08-07T07:18:05;101416.69;;;13.22;100.00
57990;BME280;58373;51.824;5.564;2023-08-07T07:20:30;101417.28;;;13.25;100.00
57990;BME280;58373;51.824;5.564;2023-08-07T07:22:55;101417.72;;;13.31;100.00
57990;BME280;58373;51.824;5.564;2023-08-07T07:25:21;101433.25;;;13.42;100.00
57990;BME280;58373;51.824;5.564;2023-08-07T07:27:46;101426.22;;;13.63;100.00
57990;BME280;58373;51.824;5.564;2023-08-07T07:30:11;101429.28;;;13.68;100.00
57990;BME280;58373;51.824;5.564;2023-08-07T07:32:36;101430.16;;;13.78;100.00
57990;BME280;58373;51.824;5.564;2023-08-07T07:35:02;101432.66;;;13.90;100.00
57990;BME280;58373;51.824;5.564;2023-08-07T07:37:27;101430.44;;;13.85;100.00
57990;BME280;58373;51.824;5.564;2023-08-07T07:39:52;101429.19;;;13.79;100.00
57990;BME280;58373;51.824;5.564;2023-08-07T07:42:18;101428.22;;;13.80;100.00
57990;BME280;58373;51.824;5.564;2023-08-07T07:44:43;101443.34;;;13.87;100.00
57990;BME280;58373;51.824;5.564;2023-08-07T07:47:08;101446.22;;;13.84;100.00
57990;BME280;58373;51.824;5.564;2023-08-07T07:49:33;101431.56;;;13.92;100.00
57990;BME280;58373;51.824;5.564;2023-08-07T07:51:59;101450.50;;;13.85;100.00
57990;BME280;58373;51.824;5.564;2023-08-07T07:54:24;101451.00;;;13.78;100.00
57990;BME280;58373;51.824;5.564;2023-08-07T07:56:49;101447.00;;;13.74;100.00
57990;BME280;58373;51.824;5.564;2023-08-07T07:59:14;101451.84;;;13.79;100.00
57990;BME280;58373;51.824;5.564;2023-08-07T08:01:40;101457.28;;;13.66;100.00
57990;BME280;58373;51.824;5.564;2023-08-07T08:04:06;101465.53;;;13.71;100.00
57990;BME280;58373;51.824;5.564;2023-08-07T08:06:31;101463.84;;;13.70;100.00
57990;BME280;58373;51.824;5.564;2023-08-07T08:08:57;101469.59;;;13.64;100.00
57990;BME280;58373;51.824;5.564;2023-08-07T08:11:22;101468.97;;;13.72;100.00
57990;BME280;58373;51.824;5.564;2023-08-07T08:13:47;101471.88;;;13.78;100.00
57990;BME280;58373;51.824;5.564;2023-08-07T08:16:13;101472.38;;;13.72;100.00
57990;BME280;58373;51.824;5.564;2023-08-07T08:18:38;101469.19;;;13.90;100.00
57990;BME280;58373;51.824;5.564;2023-08-07T08:21:03;101476.91;;;14.01;100.00
57990;BME280;58373;51.824;5.564;2023-08-07T08:23:28;101480.78;;;14.16;100.00
57990;BME280;58373;51.824;5.564;2023-08-07T08:25:53;101481.97;;;14.43;100.00
57990;BME280;58373;51.824;5.564;2023-08-07T08:28:19;101483.91;;;14.41;100.00
57990;BME280;58373;51.824;5.564;2023-08-07T08:30:44;101476.50;;;14.46;99.86
57990;BME280;58373;51.824;5.564;2023-08-07T08:33:09;101473.25;;;14.63;98.21
57990;BME280;58373;51.824;5.564;2023-08-07T08:35:37;101489.19;;;14.60;100.00
57990;BME280;58373;51.824;5.564;2023-08-07T08:38:03;101475.88;;;14.82;98.31
57990;BME280;58373;51.824;5.564;2023-08-07T08:40:28;101483.97;;;14.79;99.11
57990;BME280;58373;51.824;5.564;2023-08-07T08:42:54;101480.13;;;14.83;99.51
57990;BME280;58373;51.824;5.564;2023-08-07T08:45:22;101491.44;;;15.03;98.45
57990;BME280;58373;51.824;5.564;2023-08-07T08:47:49;101498.97;;;15.06;95.61
57990;BME280;58373;51.824;5.564;2023-08-07T08:50:16;101491.69;;;15.10;94.54
57990;BME280;58373;51.824;5.564;2023-08-07T08:52:42;101494.72;;;15.15;94.88
57990;BME280;58373;51.824;5.564;2023-08-07T08:55:07;101492.38;;;15.31;91.18
57990;BME280;58373;51.824;5.564;2023-08-07T08:57:33;101489.47;;;15.34;92.32
57990;BME280;58373;51.824;5.564;2023-08-07T09:00:00;101501.97;;;15.40;93.45
57990;BME280;58373;51.824;5.564;2023-08-07T09:02:25;101493.84;;;15.63;90.98
57990;BME280;58373;51.824;5.564;2023-08-07T09:04:51;101504.31;;;15.63;89.34
57990;BME280;58373;51.824;5.564;2023-08-07T09:07:16;101506.66;;;15.66;87.77
57990;BME280;58373;51.824;5.564;2023-08-07T09:09:43;101511.16;;;15.74;88.92
57990;BME280;58373;51.824;5.564;2023-08-07T09:12:12;101505.91;;;15.83;86.11
57990;BME280;58373;51.824;5.564;2023-08-07T09:14:38;101522.19;;;15.77;81.56
57990;BME280;58373;51.824;5.564;2023-08-07T09:17:06;101511.72;;;15.77;83.60
57990;BME280;58373;51.824;5.564;2023-08-07T09:19:32;101512.53;;;15.78;84.57
57990;BME280;58373;51.824;5.564;2023-08-07T09:21:57;101515.22;;;15.96;81.66
57990;BME280;58373;51.824;5.564;2023-08-07T09:24:23;101524.31;;;15.91;78.97
57990;BME280;58373;51.824;5.564;2023-08-07T09:26:48;101523.16;;;16.04;78.20
57990;BME280;58373;51.824;5.564;2023-08-07T09:29:15;101519.16;;;16.09;78.00
57990;BME280;58373;51.824;5.564;2023-08-07T09:31:43;101523.13;;;16.13;78.86
57990;BME280;58373;51.824;5.564;2023-08-07T09:34:10;101518.63;;;16.33;77.51
57990;BME280;58373;51.824;5.564;2023-08-07T09:36:35;101525.50;;;16.34;78.39
57990;BME280;58373;51.824;5.564;2023-08-07T09:39:01;101534.41;;;16.24;78.59
57990;BME280;58373;51.824;5.564;2023-08-07T09:41:27;101532.47;;;16.16;77.10
57990;BME280;58373;51.824;5.564;2023-08-07T09:43:53;101536.81;;;15.98;76.33
57990;BME280;58373;51.824;5.564;2023-08-07T09:46:19;101543.69;;;15.99;75.80
57990;BME280;58373;51.824;5.564;2023-08-07T09:48:44;101554.06;;;15.90;73.86
57990;BME280;58373;51.824;5.564;2023-08-07T09:51:10;101547.22;;;15.70;76.84
57990;BME280;58373;51.824;5.564;2023-08-07T09:53:35;101550.81;;;15.69;77.75
57990;BME280;58373;51.824;5.564;2023-08-07T09:56:01;101554.94;;;15.72;77.50
57990;BME280;58373;51.824;5.564;2023-08-07T09:58:26;101560.59;;;15.67;78.61
57990;BME280;58373;51.824;5.564;2023-08-07T10:00:52;101568.97;;;15.71;78.75
57990;BME280;58373;51.824;5.564;2023-08-07T10:03:18;101573.94;;;15.64;78.69
57990;BME280;58373;51.824;5.564;2023-08-07T10:05:44;101588.50;;;15.57;79.88
57990;BME280;58373;51.824;5.564;2023-08-07T10:08:10;101583.00;;;15.40;81.35
57990;BME280;58373;51.824;5.564;2023-08-07T10:10:35;101582.88;;;15.32;81.47
57990;BME280;58373;51.824;5.564;2023-08-07T10:13:01;101581.63;;;15.36;81.36
57990;BME280;58373;51.824;5.564;2023-08-07T10:15:27;101575.88;;;15.33;83.12
57990;BME280;58373;51.824;5.564;2023-08-07T10:17:53;101573.94;;;15.45;83.24
57990;BME280;58373;51.824;5.564;2023-08-07T10:20:18;101580.66;;;15.57;82.38
57990;BME280;58373;51.824;5.564;2023-08-07T10:22:45;101577.25;;;15.66;83.91
57990;BME280;58373;51.824;5.564;2023-08-07T10:25:11;101577.47;;;15.82;82.51
57990;BME280;58373;51.824;5.564;2023-08-07T10:27:37;101574.69;;;15.93;83.96
57990;BME280;58373;51.824;5.564;2023-08-07T10:30:04;101570.91;;;16.15;82.03
57990;BME280;58373;51.824;5.564;2023-08-07T10:32:30;101579.31;;;16.19;82.24
57990;BME280;58373;51.824;5.564;2023-08-07T10:34:56;101581.44;;;16.33;79.30
57990;BME280;58373;51.824;5.564;2023-08-07T10:37:32;101576.75;;;16.37;80.34
57990;BME280;58373;51.824;5.564;2023-08-07T10:40:01;101575.63;;;16.39;78.07
57990;BME280;58373;51.824;5.564;2023-08-07T10:42:26;101575.38;;;16.42;80.39
57990;BME280;58373;51.824;5.564;2023-08-07T10:44:51;101575.03;;;16.55;76.95
57990;BME280;58373;51.824;5.564;2023-08-07T10:47:17;101578.06;;;16.51;77.36
57990;BME280;58373;51.824;5.564;2023-08-07T10:49:57;101578.13;;;16.41;76.08
57990;BME280;58373;51.824;5.564;2023-08-07T10:52:24;101588.63;;;16.31;77.01
57990;BME280;58373;51.824;5.564;2023-08-07T10:54:50;101595.94;;;16.28;75.63
57990;BME280;58373;51.824;5.564;2023-08-07T10:57:15;101589.22;;;16.25;75.66
57990;BME280;58373;51.824;5.564;2023-08-07T10:59:51;101597.63;;;16.29;74.61
57990;BME280;58373;51.824;5.564;2023-08-07T11:02:35;101598.56;;;16.28;75.29
57990;BME280;58373;51.824;5.564;2023-08-07T11:05:01;101603.94;;;16.26;76.23
57990;BME280;58373;51.824;5.564;2023-08-07T11:07:27;101606.56;;;16.26;75.81
57990;BME280;58373;51.824;5.564;2023-08-07T11:09:56;101613.34;;;16.19;73.59
57990;BME280;58373;51.824;5.564;2023-08-07T11:12:25;101612.66;;;16.17;75.52
57990;BME280;58373;51.824;5.564;2023-08-07T11:14:51;101607.41;;;16.17;73.71
57990;BME280;58373;51.824;5.564;2023-08-07T11:17:17;101597.78;;;16.17;76.02
57990;BME280;58373;51.824;5.564;2023-08-07T11:19:43;101610.16;;;16.25;74.92
57990;BME280;58373;51.824;5.564;2023-08-07T11:22:08;101610.66;;;16.38;74.68
57990;BME280;58373;51.824;5.564;2023-08-07T11:24:33;101620.31;;;16.38;74.43
57990;BME280;58373;51.824;5.564;2023-08-07T11:26:58;101618.91;;;16.43;74.54
57990;BME280;58373;51.824;5.564;2023-08-07T11:29:23;101615.31;;;16.44;74.85
57990;BME280;58373;51.824;5.564;2023-08-07T11:31:50;101621.66;;;16.52;74.59
57990;BME280;58373;51.824;5.564;2023-08-07T11:34:18;101629.78;;;16.49;75.42
57990;BME280;58373;51.824;5.564;2023-08-07T11:36:44;101612.25;;;16.49;74.98
57990;BME280;58373;51.824;5.564;2023-08-07T11:39:09;101614.94;;;16.67;72.75
57990;BME280;58373;51.824;5.564;2023-08-07T11:41:35;101625.59;;;16.56;73.21
57990;BME280;58373;51.824;5.564;2023-08-07T11:44:00;101623.53;;;16.59;73.15
57990;BME280;58373;51.824;5.564;2023-08-07T11:46:25;101620.34;;;16.65;75.18
57990;BME280;58373;51.824;5.564;2023-08-07T11:48:51;101618.53;;;16.76;74.10
57990;BME280;58373;51.824;5.564;2023-08-07T11:51:16;101605.28;;;16.77;74.43
57990;BME280;58373;51.824;5.564;2023-08-07T11:53:42;101610.16;;;16.90;73.16
57990;BME280;58373;51.824;5.564;2023-08-07T11:56:08;101606.50;;;17.01;73.03
57990;BME280;58373;51.824;5.564;2023-08-07T11:58:43;101613.53;;;17.00;73.04
57990;BME280;58373;51.824;5.564;2023-08-07T12:01:11;101603.50;;;16.95;71.53
57990;BME280;58373;51.824;5.564;2023-08-07T12:03:38;101614.38;;;17.01;69.71
57990;BME280;58373;51.824;5.564;2023-08-07T12:06:04;101604.88;;;16.99;70.32
57990;BME280;58373;51.824;5.564;2023-08-07T12:08:33;101609.28;;;16.99;70.83
57990;BME280;58373;51.824;5.564;2023-08-07T12:11:00;101613.78;;;17.07;71.39
57990;BME280;58373;51.824;5.564;2023-08-07T12:13:26;101617.44;;;17.14;71.08
57990;BME280;58373;51.824;5.564;2023-08-07T12:15:54;101611.81;;;17.09;70.41
57990;BME280;58373;51.824;5.564;2023-08-07T12:18:20;101614.44;;;17.09;69.34
57990;BME280;58373;51.824;5.564;2023-08-07T12:20:49;101610.09;;;16.99;68.42
57990;BME280;58373;51.824;5.564;2023-08-07T12:23:14;101610.34;;;17.06;67.72
57990;BME280;58373;51.824;5.564;2023-08-07T12:25:41;101609.53;;;17.23;69.14
57990;BME280;58373;51.824;5.564;2023-08-07T12:28:06;101605.91;;;17.42;68.48
57990;BME280;58373;51.824;5.564;2023-08-07T12:30:34;101611.91;;;17.52;64.05
57990;BME280;58373;51.824;5.564;2023-08-07T12:32:59;101611.00;;;17.62;66.29
57990;BME280;58373;51.824;5.564;2023-08-07T12:35:24;101617.00;;;17.72;66.77
57990;BME280;58373;51.824;5.564;2023-08-07T12:37:49;101619.88;;;17.78;67.09
57990;BME280;58373;51.824;5.564;2023-08-07T12:40:14;101613.09;;;17.76;64.59